メインページ
METAR-TAF:

METAR-TAF

空港 :

Fort St. John, ブリティッシュコロンビア州, カナダ

緯度: 56-14N, 経度: 120-44W, 海抜: 695m

現時点の気象観測

当レポートは1時間14分前の14:00(UTC)に作成
南/南西の風 3kt、から西/南西の間で変化する
気温 8°C
湿度 76%
気圧 1008 hPa
視程: 96.5km
高度16000ftの雲はほとんどない
高度24000ftの雲は散在している

METAR: CYXJ 111400Z 20003KT 180V240 60SM FEW160 SCT240 08/04 A2976 RMK AC1CI2 SLP091

時間: 08:14 (15:14 UTC)

予報

当レポートは2時間35分前の12:39(UTC)に作成
予報は11日の 13時(UTC)から 12日の 01時(UTC)まで有効
西/南西の風 8kt
視程: 10km
高度16000ftの雲はほとんどない
高度24000ftの雲は散在している
11日の 15時(UTC)から 11日の 17時(UTC)まで徐々に
南西の風 10kt、最大20ktの突風を伴う
11日の 2000時(UTC)から
西の風 10kt、最大20ktの突風を伴う
視程: 10km
高度6000ftの雲は散在している
11日の 20時(UTC)から 12日の 01時(UTC)まで一時的に
視程: 10km
高度6000ftの千切れ雲あり
弱いにわか雨

TAF: CYXJ 111239Z 1113/1201 24008KT P6SM FEW160 SCT240 BECMG 1115/1117 23010G20KT FM112000 26010G20KT P6SM SCT060 TEMPO 1120/1201 P6SM -SHRA BKN060 RMK NXT FCST BY 111900Z

4,000以上の空港の気象観測と天気予報(METAR報とTAF報)

利用可能な観測所は地図上に黄色い丸と赤い丸で示す。

丸の上にカーソルを重ねると観測所名を参照できる。

次にクリックすると気象観測と天気予報を参照できる。

マップの切り替え:黒色「×」印の緑ボタンをクリックして拡大、「-」印の緑ボタンをクリックして縮小、緑色の三角印をクリックして隣りの地図に切り替え


METAR-TAF: